sensor_id;sensor_type;location;lat;lon;timestamp;temperature;humidity
7360;DHT22;3720;48.274;7.796;2022-10-15T00:00:37;16.90;99.90
7360;DHT22;3720;48.274;7.796;2022-10-15T00:03:10;16.90;99.90
7360;DHT22;3720;48.274;7.796;2022-10-15T00:05:43;16.90;99.90
7360;DHT22;3720;48.274;7.796;2022-10-15T00:08:15;16.90;99.90
7360;DHT22;3720;48.274;7.796;2022-10-15T00:10:47;16.90;99.90
7360;DHT22;3720;48.274;7.796;2022-10-15T00:13:19;16.90;99.90
7360;DHT22;3720;48.274;7.796;2022-10-15T00:15:51;17.00;99.90
7360;DHT22;3720;48.274;7.796;2022-10-15T00:18:23;17.00;99.90
7360;DHT22;3720;48.274;7.796;2022-10-15T00:20:56;17.00;99.90
7360;DHT22;3720;48.274;7.796;2022-10-15T00:23:30;17.00;99.90
7360;DHT22;3720;48.274;7.796;2022-10-15T00:26:04;17.00;99.90
7360;DHT22;3720;48.274;7.796;2022-10-15T00:28:36;17.00;99.90
7360;DHT22;3720;48.274;7.796;2022-10-15T00:31:11;17.00;99.90
7360;DHT22;3720;48.274;7.796;2022-10-15T00:33:44;17.10;99.90
7360;DHT22;3720;48.274;7.796;2022-10-15T00:36:19;17.10;99.90
7360;DHT22;3720;48.274;7.796;2022-10-15T00:38:51;17.10;99.90
7360;DHT22;3720;48.274;7.796;2022-10-15T00:41:26;17.10;99.90
7360;DHT22;3720;48.274;7.796;2022-10-15T00:44:00;17.10;99.90
7360;DHT22;3720;48.274;7.796;2022-10-15T00:46:35;17.10;99.90
7360;DHT22;3720;48.274;7.796;2022-10-15T00:49:13;17.10;99.90
7360;DHT22;3720;48.274;7.796;2022-10-15T00:51:51;17.10;99.90
7360;DHT22;3720;48.274;7.796;2022-10-15T00:54:26;17.10;99.90
7360;DHT22;3720;48.274;7.796;2022-10-15T00:57:01;17.10;99.90
7360;DHT22;3720;48.274;7.796;2022-10-15T00:59:36;17.10;99.90
7360;DHT22;3720;48.274;7.796;2022-10-15T01:02:10;17.10;99.90
7360;DHT22;3720;48.274;7.796;2022-10-15T01:04:43;17.10;99.90
7360;DHT22;3720;48.274;7.796;2022-10-15T01:07:17;17.10;99.90
7360;DHT22;3720;48.274;7.796;2022-10-15T01:09:50;17.10;99.90
7360;DHT22;3720;48.274;7.796;2022-10-15T01:12:31;17.20;99.90
7360;DHT22;3720;48.274;7.796;2022-10-15T01:15:07;17.20;99.90
7360;DHT22;3720;48.274;7.796;2022-10-15T01:17:45;17.20;99.90
7360;DHT22;3720;48.274;7.796;2022-10-15T01:23:39;17.20;99.90
7360;DHT22;3720;48.274;7.796;2022-10-15T01:26:33;17.20;99.90
7360;DHT22;3720;48.274;7.796;2022-10-15T01:29:18;17.20;99.90
7360;DHT22;3720;48.274;7.796;2022-10-15T01:31:59;17.20;99.90
7360;DHT22;3720;48.274;7.796;2022-10-15T01:34:37;17.20;99.90
7360;DHT22;3720;48.274;7.796;2022-10-15T01:37:15;17.20;99.90
7360;DHT22;3720;48.274;7.796;2022-10-15T01:39:52;17.20;99.90
7360;DHT22;3720;48.274;7.796;2022-10-15T01:42:27;17.20;99.90
7360;DHT22;3720;48.274;7.796;2022-10-15T01:45:05;17.20;99.90
7360;DHT22;3720;48.274;7.796;2022-10-15T01:47:42;17.20;99.90
7360;DHT22;3720;48.274;7.796;2022-10-15T01:50:19;17.20;99.90
7360;DHT22;3720;48.274;7.796;2022-10-15T01:52:51;17.20;99.90
7360;DHT22;3720;48.274;7.796;2022-10-15T01:55:26;17.20;99.90
7360;DHT22;3720;48.274;7.796;2022-10-15T01:57:59;17.20;99.90
7360;DHT22;3720;48.274;7.796;2022-10-15T02:00:33;17.20;99.90
7360;DHT22;3720;48.274;7.796;2022-10-15T02:03:06;17.30;99.90
7360;DHT22;3720;48.274;7.796;2022-10-15T02:05:46;17.30;99.90
7360;DHT22;3720;48.274;7.796;2022-10-15T02:08:27;17.30;99.90
7360;DHT22;3720;48.274;7.796;2022-10-15T02:11:04;17.30;99.90
7360;DHT22;3720;48.274;7.796;2022-10-15T02:13:45;17.30;99.90
7360;DHT22;3720;48.274;7.796;2022-10-15T02:16:23;17.30;99.90
7360;DHT22;3720;48.274;7.796;2022-10-15T02:19:02;17.30;99.90
7360;DHT22;3720;48.274;7.796;2022-10-15T02:21:39;17.30;99.90
7360;DHT22;3720;48.274;7.796;2022-10-15T02:24:15;17.30;99.90
7360;DHT22;3720;48.274;7.796;2022-10-15T02:26:50;17.30;99.90
7360;DHT22;3720;48.274;7.796;2022-10-15T02:29:26;17.30;99.90
7360;DHT22;3720;48.274;7.796;2022-10-15T02:32:00;17.30;99.90
7360;DHT22;3720;48.274;7.796;2022-10-15T02:34:35;17.30;99.90
7360;DHT22;3720;48.274;7.796;2022-10-15T02:37:08;17.30;99.90
7360;DHT22;3720;48.274;7.796;2022-10-15T02:39:39;17.30;99.90
7360;DHT22;3720;48.274;7.796;2022-10-15T02:42:11;17.30;99.90
7360;DHT22;3720;48.274;7.796;2022-10-15T02:44:45;17.30;99.90
7360;DHT22;3720;48.274;7.796;2022-10-15T02:47:17;17.30;99.90
7360;DHT22;3720;48.274;7.796;2022-10-15T02:49:50;17.30;99.90
7360;DHT22;3720;48.274;7.796;2022-10-15T02:52:22;17.30;99.90
7360;DHT22;3720;48.274;7.796;2022-10-15T02:54:53;17.30;99.90
7360;DHT22;3720;48.274;7.796;2022-10-15T02:57:25;17.30;99.90
7360;DHT22;3720;48.274;7.796;2022-10-15T02:59:57;17.30;99.90
7360;DHT22;3720;48.274;7.796;2022-10-15T03:02:29;17.30;99.90
7360;DHT22;3720;48.274;7.796;2022-10-15T03:05:03;17.30;99.90
7360;DHT22;3720;48.274;7.796;2022-10-15T03:07:35;17.30;99.90
7360;DHT22;3720;48.274;7.796;2022-10-15T03:10:07;17.30;99.90
7360;DHT22;3720;48.274;7.796;2022-10-15T03:12:39;17.30;99.90
7360;DHT22;3720;48.274;7.796;2022-10-15T03:15:11;17.30;99.90
7360;DHT22;3720;48.274;7.796;2022-10-15T03:17:44;17.20;99.90
7360;DHT22;3720;48.274;7.796;2022-10-15T03:20:17;17.20;99.90
7360;DHT22;3720;48.274;7.796;2022-10-15T03:22:49;17.20;99.90
7360;DHT22;3720;48.274;7.796;2022-10-15T03:25:21;17.20;99.90
7360;DHT22;3720;48.274;7.796;2022-10-15T03:27:53;17.20;99.90
7360;DHT22;3720;48.274;7.796;2022-10-15T03:30:26;17.20;99.90
7360;DHT22;3720;48.274;7.796;2022-10-15T03:32:58;17.20;99.90
7360;DHT22;3720;48.274;7.796;2022-10-15T03:35:31;17.20;99.90
7360;DHT22;3720;48.274;7.796;2022-10-15T03:38:03;17.20;99.90
7360;DHT22;3720;48.274;7.796;2022-10-15T03:40:35;17.20;99.90
7360;DHT22;3720;48.274;7.796;2022-10-15T03:43:07;17.10;99.90
7360;DHT22;3720;48.274;7.796;2022-10-15T03:45:39;17.20;99.90
7360;DHT22;3720;48.274;7.796;2022-10-15T03:48:11;17.20;99.90
7360;DHT22;3720;48.274;7.796;2022-10-15T03:50:46;17.20;99.90
7360;DHT22;3720;48.274;7.796;2022-10-15T03:53:17;17.10;99.90
7360;DHT22;3720;48.274;7.796;2022-10-15T03:55:49;17.10;99.90
7360;DHT22;3720;48.274;7.796;2022-10-15T03:58:21;17.10;99.90
7360;DHT22;3720;48.274;7.796;2022-10-15T04:00:53;17.10;99.90
7360;DHT22;3720;48.274;7.796;2022-10-15T04:03:25;17.10;99.90
7360;DHT22;3720;48.274;7.796;2022-10-15T04:05:58;17.10;99.90
7360;DHT22;3720;48.274;7.796;2022-10-15T04:08:31;17.10;99.90
7360;DHT22;3720;48.274;7.796;2022-10-15T04:11:03;17.10;99.90
7360;DHT22;3720;48.274;7.796;2022-10-15T04:13:34;17.10;99.90
7360;DHT22;3720;48.274;7.796;2022-10-15T04:16:06;17.10;99.90
7360;DHT22;3720;48.274;7.796;2022-10-15T04:18:38;17.00;99.90
7360;DHT22;3720;48.274;7.796;2022-10-15T04:21:12;17.00;99.90
7360;DHT22;3720;48.274;7.796;2022-10-15T04:23:44;17.00;99.90
7360;DHT22;3720;48.274;7.796;2022-10-15T04:26:16;17.00;99.90
7360;DHT22;3720;48.274;7.796;2022-10-15T04:28:48;17.00;99.90
7360;DHT22;3720;48.274;7.796;2022-10-15T04:31:20;16.90;99.90
7360;DHT22;3720;48.274;7.796;2022-10-15T04:33:52;16.90;99.90
7360;DHT22;3720;48.274;7.796;2022-10-15T04:36:25;16.90;99.90
7360;DHT22;3720;48.274;7.796;2022-10-15T04:38:57;16.90;99.90
7360;DHT22;3720;48.274;7.796;2022-10-15T04:41:29;16.90;99.90
7360;DHT22;3720;48.274;7.796;2022-10-15T04:44:01;16.90;99.90
7360;DHT22;3720;48.274;7.796;2022-10-15T04:46:33;17.00;99.90
7360;DHT22;3720;48.274;7.796;2022-10-15T04:49:05;16.90;99.90
7360;DHT22;3720;48.274;7.796;2022-10-15T04:51:39;16.80;99.90
7360;DHT22;3720;48.274;7.796;2022-10-15T04:54:11;16.80;99.90
7360;DHT22;3720;48.274;7.796;2022-10-15T04:56:43;16.90;99.90
7360;DHT22;3720;48.274;7.796;2022-10-15T04:59:15;16.80;99.90
7360;DHT22;3720;48.274;7.796;2022-10-15T05:01:47;16.80;99.90
7360;DHT22;3720;48.274;7.796;2022-10-15T05:04:19;16.80;99.90
7360;DHT22;3720;48.274;7.796;2022-10-15T05:06:53;16.70;99.90
7360;DHT22;3720;48.274;7.796;2022-10-15T05:09:24;16.70;99.90
7360;DHT22;3720;48.274;7.796;2022-10-15T05:11:56;16.60;99.90
7360;DHT22;3720;48.274;7.796;2022-10-15T05:14:28;16.60;99.90
7360;DHT22;3720;48.274;7.796;2022-10-15T05:17:00;16.50;99.90
7360;DHT22;3720;48.274;7.796;2022-10-15T05:19:32;16.50;99.90
7360;DHT22;3720;48.274;7.796;2022-10-15T05:22:06;16.50;99.90
7360;DHT22;3720;48.274;7.796;2022-10-15T05:24:38;16.40;99.90
7360;DHT22;3720;48.274;7.796;2022-10-15T05:27:09;16.40;99.90
7360;DHT22;3720;48.274;7.796;2022-10-15T05:29:41;16.50;99.90
7360;DHT22;3720;48.274;7.796;2022-10-15T05:32:13;16.40;99.90
7360;DHT22;3720;48.274;7.796;2022-10-15T05:34:45;16.50;99.90
7360;DHT22;3720;48.274;7.796;2022-10-15T05:37:18;16.40;99.90
7360;DHT22;3720;48.274;7.796;2022-10-15T05:39:50;16.40;99.90
7360;DHT22;3720;48.274;7.796;2022-10-15T05:42:22;16.50;99.90
7360;DHT22;3720;48.274;7.796;2022-10-15T05:44:54;16.40;99.90
7360;DHT22;3720;48.274;7.796;2022-10-15T05:47:26;16.40;99.90
7360;DHT22;3720;48.274;7.796;2022-10-15T05:49:58;16.40;99.90
7360;DHT22;3720;48.274;7.796;2022-10-15T05:52:31;16.40;99.90
7360;DHT22;3720;48.274;7.796;2022-10-15T05:55:04;16.40;99.90
7360;DHT22;3720;48.274;7.796;2022-10-15T05:57:36;16.40;99.90
7360;DHT22;3720;48.274;7.796;2022-10-15T06:00:09;16.40;99.90
7360;DHT22;3720;48.274;7.796;2022-10-15T06:02:41;16.40;99.90
7360;DHT22;3720;48.274;7.796;2022-10-15T06:05:13;16.30;99.90
7360;DHT22;3720;48.274;7.796;2022-10-15T06:07:46;16.30;99.90
7360;DHT22;3720;48.274;7.796;2022-10-15T06:10:18;16.30;99.90
7360;DHT22;3720;48.274;7.796;2022-10-15T06:12:50;16.30;99.90
7360;DHT22;3720;48.274;7.796;2022-10-15T06:15:22;16.30;99.90
7360;DHT22;3720;48.274;7.796;2022-10-15T06:17:54;16.30;99.90
7360;DHT22;3720;48.274;7.796;2022-10-15T06:20:27;16.30;99.90
7360;DHT22;3720;48.274;7.796;2022-10-15T06:23:00;16.30;99.90
7360;DHT22;3720;48.274;7.796;2022-10-15T06:25:32;16.40;99.90
7360;DHT22;3720;48.274;7.796;2022-10-15T06:28:05;16.40;99.90
7360;DHT22;3720;48.274;7.796;2022-10-15T06:30:39;16.50;99.90
7360;DHT22;3720;48.274;7.796;2022-10-15T06:33:11;16.50;99.90
7360;DHT22;3720;48.274;7.796;2022-10-15T06:35:42;16.60;99.90
7360;DHT22;3720;48.274;7.796;2022-10-15T06:38:16;16.70;99.90
7360;DHT22;3720;48.274;7.796;2022-10-15T06:40:48;16.60;99.90
7360;DHT22;3720;48.274;7.796;2022-10-15T06:43:19;16.70;99.90
7360;DHT22;3720;48.274;7.796;2022-10-15T06:45:51;16.70;99.90
7360;DHT22;3720;48.274;7.796;2022-10-15T06:48:23;16.70;99.90
7360;DHT22;3720;48.274;7.796;2022-10-15T06:50:57;16.70;99.90
7360;DHT22;3720;48.274;7.796;2022-10-15T06:53:32;16.70;99.90
7360;DHT22;3720;48.274;7.796;2022-10-15T06:56:04;16.70;99.90
7360;DHT22;3720;48.274;7.796;2022-10-15T06:58:36;16.60;99.90
7360;DHT22;3720;48.274;7.796;2022-10-15T07:01:08;16.70;99.90
7360;DHT22;3720;48.274;7.796;2022-10-15T07:03:41;16.60;99.90
7360;DHT22;3720;48.274;7.796;2022-10-15T07:06:13;16.60;99.90
7360;DHT22;3720;48.274;7.796;2022-10-15T07:08:46;16.60;99.90
7360;DHT22;3720;48.274;7.796;2022-10-15T07:11:18;16.70;99.90
7360;DHT22;3720;48.274;7.796;2022-10-15T07:13:50;16.70;99.90
7360;DHT22;3720;48.274;7.796;2022-10-15T07:16:23;16.70;99.90
7360;DHT22;3720;48.274;7.796;2022-10-15T07:18:55;16.80;99.90
7360;DHT22;3720;48.274;7.796;2022-10-15T07:21:27;16.80;99.90
7360;DHT22;3720;48.274;7.796;2022-10-15T07:24:00;16.80;99.90
7360;DHT22;3720;48.274;7.796;2022-10-15T07:26:32;16.90;99.90
7360;DHT22;3720;48.274;7.796;2022-10-15T07:29:04;17.00;99.90
7360;DHT22;3720;48.274;7.796;2022-10-15T07:31:36;17.10;99.90
7360;DHT22;3720;48.274;7.796;2022-10-15T07:34:08;17.10;99.90
7360;DHT22;3720;48.274;7.796;2022-10-15T07:36:40;17.20;99.90
7360;DHT22;3720;48.274;7.796;2022-10-15T07:39:13;17.20;99.90
7360;DHT22;3720;48.274;7.796;2022-10-15T07:41:47;17.20;99.90
7360;DHT22;3720;48.274;7.796;2022-10-15T07:44:19;17.30;99.90
7360;DHT22;3720;48.274;7.796;2022-10-15T07:46:51;17.30;99.90
7360;DHT22;3720;48.274;7.796;2022-10-15T07:49:23;17.30;99.90
7360;DHT22;3720;48.274;7.796;2022-10-15T07:51:55;17.30;99.90
7360;DHT22;3720;48.274;7.796;2022-10-15T07:54:28;17.40;99.90
7360;DHT22;3720;48.274;7.796;2022-10-15T07:57:00;17.40;99.90
7360;DHT22;3720;48.274;7.796;2022-10-15T07:59:32;17.50;99.90
7360;DHT22;3720;48.274;7.796;2022-10-15T08:02:05;17.60;99.90
7360;DHT22;3720;48.274;7.796;2022-10-15T08:04:37;17.60;99.90
7360;DHT22;3720;48.274;7.796;2022-10-15T08:07:09;17.60;99.90
7360;DHT22;3720;48.274;7.796;2022-10-15T08:09:42;17.70;99.90
7360;DHT22;3720;48.274;7.796;2022-10-15T08:12:14;17.70;99.90
7360;DHT22;3720;48.274;7.796;2022-10-15T08:14:46;17.80;99.90
7360;DHT22;3720;48.274;7.796;2022-10-15T08:17:18;17.70;99.90
7360;DHT22;3720;48.274;7.796;2022-10-15T08:19:50;17.70;99.90
7360;DHT22;3720;48.274;7.796;2022-10-15T08:22:21;17.70;99.90
7360;DHT22;3720;48.274;7.796;2022-10-15T08:24:55;17.70;99.90
7360;DHT22;3720;48.274;7.796;2022-10-15T08:27:26;17.70;99.90
7360;DHT22;3720;48.274;7.796;2022-10-15T08:29:58;17.70;99.90
7360;DHT22;3720;48.274;7.796;2022-10-15T08:32:30;17.70;99.90
7360;DHT22;3720;48.274;7.796;2022-10-15T08:35:02;17.80;99.90
7360;DHT22;3720;48.274;7.796;2022-10-15T08:37:34;17.80;99.90
7360;DHT22;3720;48.274;7.796;2022-10-15T08:40:10;17.80;99.90
7360;DHT22;3720;48.274;7.796;2022-10-15T08:42:45;17.90;99.90
7360;DHT22;3720;48.274;7.796;2022-10-15T08:45:23;18.00;99.90
7360;DHT22;3720;48.274;7.796;2022-10-15T08:47:59;18.00;99.90
7360;DHT22;3720;48.274;7.796;2022-10-15T08:50:39;18.10;99.90
7360;DHT22;3720;48.274;7.796;2022-10-15T08:53:15;18.10;99.90
7360;DHT22;3720;48.274;7.796;2022-10-15T08:55:54;18.20;99.90
7360;DHT22;3720;48.274;7.796;2022-10-15T08:58:35;18.20;99.90
7360;DHT22;3720;48.274;7.796;2022-10-15T09:01:16;18.20;99.90
7360;DHT22;3720;48.274;7.796;2022-10-15T09:03:55;18.20;99.90
7360;DHT22;3720;48.274;7.796;2022-10-15T09:06:34;18.20;99.90
7360;DHT22;3720;48.274;7.796;2022-10-15T09:09:13;18.20;99.90
7360;DHT22;3720;48.274;7.796;2022-10-15T09:11:56;18.30;99.90
7360;DHT22;3720;48.274;7.796;2022-10-15T09:14:39;18.30;99.90
7360;DHT22;3720;48.274;7.796;2022-10-15T09:17:17;18.30;99.90
7360;DHT22;3720;48.274;7.796;2022-10-15T09:19:52;18.20;99.90
7360;DHT22;3720;48.274;7.796;2022-10-15T09:22:27;18.30;99.90
7360;DHT22;3720;48.274;7.796;2022-10-15T09:25:12;18.30;99.90
7360;DHT22;3720;48.274;7.796;2022-10-15T09:27:48;18.30;99.90
7360;DHT22;3720;48.274;7.796;2022-10-15T09:30:27;18.30;99.90
7360;DHT22;3720;48.274;7.796;2022-10-15T09:33:08;18.40;99.90
7360;DHT22;3720;48.274;7.796;2022-10-15T09:35:48;18.40;99.90
7360;DHT22;3720;48.274;7.796;2022-10-15T09:38:29;18.50;99.90
7360;DHT22;3720;48.274;7.796;2022-10-15T09:41:12;18.50;99.90
7360;DHT22;3720;48.274;7.796;2022-10-15T09:43:50;18.50;99.90
7360;DHT22;3720;48.274;7.796;2022-10-15T09:46:23;18.50;99.90
7360;DHT22;3720;48.274;7.796;2022-10-15T09:49:02;18.40;99.90
7360;DHT22;3720;48.274;7.796;2022-10-15T09:51:42;18.40;99.90
7360;DHT22;3720;48.274;7.796;2022-10-15T09:54:20;18.50;99.90
7360;DHT22;3720;48.274;7.796;2022-10-15T09:56:55;18.50;99.90
7360;DHT22;3720;48.274;7.796;2022-10-15T09:59:29;18.50;99.90
7360;DHT22;3720;48.274;7.796;2022-10-15T10:02:03;18.50;99.90
7360;DHT22;3720;48.274;7.796;2022-10-15T10:04:36;18.50;99.90
7360;DHT22;3720;48.274;7.796;2022-10-15T10:07:28;18.50;99.90
7360;DHT22;3720;48.274;7.796;2022-10-15T10:10:03;18.40;99.90
7360;DHT22;3720;48.274;7.796;2022-10-15T10:12:36;18.50;99.90
7360;DHT22;3720;48.274;7.796;2022-10-15T10:15:27;18.40;99.90
7360;DHT22;3720;48.274;7.796;2022-10-15T10:18:02;18.40;99.90
7360;DHT22;3720;48.274;7.796;2022-10-15T10:20:52;18.40;99.90
7360;DHT22;3720;48.274;7.796;2022-10-15T10:23:29;18.50;99.90
7360;DHT22;3720;48.274;7.796;2022-10-15T10:26:03;18.50;99.90
7360;DHT22;3720;48.274;7.796;2022-10-15T10:28:42;18.60;99.90
7360;DHT22;3720;48.274;7.796;2022-10-15T10:31:26;18.70;99.90
7360;DHT22;3720;48.274;7.796;2022-10-15T10:34:00;18.70;99.90
7360;DHT22;3720;48.274;7.796;2022-10-15T10:36:33;18.70;99.90
7360;DHT22;3720;48.274;7.796;2022-10-15T10:39:14;18.80;99.90
7360;DHT22;3720;48.274;7.796;2022-10-15T10:41:50;19.00;99.90
7360;DHT22;3720;48.274;7.796;2022-10-15T10:44:27;19.00;99.90
7360;DHT22;3720;48.274;7.796;2022-10-15T10:47:13;19.00;99.90
7360;DHT22;3720;48.274;7.796;2022-10-15T10:49:48;19.10;99.90
7360;DHT22;3720;48.274;7.796;2022-10-15T10:52:23;19.10;99.90
7360;DHT22;3720;48.274;7.796;2022-10-15T10:55:00;19.10;99.90
7360;DHT22;3720;48.274;7.796;2022-10-15T10:57:43;19.20;99.90
7360;DHT22;3720;48.274;7.796;2022-10-15T11:00:19;19.40;99.90
7360;DHT22;3720;48.274;7.796;2022-10-15T11:02:53;19.40;99.90
7360;DHT22;3720;48.274;7.796;2022-10-15T11:05:27;19.50;99.90
7360;DHT22;3720;48.274;7.796;2022-10-15T11:08:06;19.50;99.90
7360;DHT22;3720;48.274;7.796;2022-10-15T11:10:49;19.50;99.90
7360;DHT22;3720;48.274;7.796;2022-10-15T11:13:31;19.50;99.90
7360;DHT22;3720;48.274;7.796;2022-10-15T11:16:08;19.50;99.90
7360;DHT22;3720;48.274;7.796;2022-10-15T11:18:55;19.50;99.90
7360;DHT22;3720;48.274;7.796;2022-10-15T11:21:41;19.40;99.90
7360;DHT22;3720;48.274;7.796;2022-10-15T11:24:20;19.40;99.90
7360;DHT22;3720;48.274;7.796;2022-10-15T11:27:03;19.30;99.90
7360;DHT22;3720;48.274;7.796;2022-10-15T11:29:46;19.40;99.90
7360;DHT22;3720;48.274;7.796;2022-10-15T11:32:28;19.40;99.90
7360;DHT22;3720;48.274;7.796;2022-10-15T11:35:18;19.50;99.90
7360;DHT22;3720;48.274;7.796;2022-10-15T11:38:02;19.60;99.90
7360;DHT22;3720;48.274;7.796;2022-10-15T11:40:43;19.60;99.90
7360;DHT22;3720;48.274;7.796;2022-10-15T11:43:23;19.60;99.90
7360;DHT22;3720;48.274;7.796;2022-10-15T11:46:03;19.60;99.90
7360;DHT22;3720;48.274;7.796;2022-10-15T11:48:49;19.70;99.90
7360;DHT22;3720;48.274;7.796;2022-10-15T11:51:33;19.70;99.90
7360;DHT22;3720;48.274;7.796;2022-10-15T11:54:22;19.70;99.90
7360;DHT22;3720;48.274;7.796;2022-10-15T11:56:59;19.60;99.90
7360;DHT22;3720;48.274;7.796;2022-10-15T11:59:36;19.60;99.90
7360;DHT22;3720;48.274;7.796;2022-10-15T12:02:14;19.60;99.90
7360;DHT22;3720;48.274;7.796;2022-10-15T12:04:49;19.70;99.90
7360;DHT22;3720;48.274;7.796;2022-10-15T12:07:29;19.70;99.90
7360;DHT22;3720;48.274;7.796;2022-10-15T12:10:07;19.90;99.90
7360;DHT22;3720;48.274;7.796;2022-10-15T12:12:46;20.10;99.90
7360;DHT22;3720;48.274;7.796;2022-10-15T12:15:28;20.10;99.90
7360;DHT22;3720;48.274;7.796;2022-10-15T12:18:03;20.20;99.90
7360;DHT22;3720;48.274;7.796;2022-10-15T12:20:42;20.00;99.90
7360;DHT22;3720;48.274;7.796;2022-10-15T12:23:38;19.90;99.90
7360;DHT22;3720;48.274;7.796;2022-10-15T12:26:31;19.80;99.90
7360;DHT22;3720;48.274;7.796;2022-10-15T12:29:15;19.70;99.90
7360;DHT22;3720;48.274;7.796;2022-10-15T12:31:51;19.50;99.90
7360;DHT22;3720;48.274;7.796;2022-10-15T12:34:31;19.40;99.90
7360;DHT22;3720;48.274;7.796;2022-10-15T12:37:15;19.40;99.90
7360;DHT22;3720;48.274;7.796;2022-10-15T12:39:54;19.30;99.90
7360;DHT22;3720;48.274;7.796;2022-10-15T12:42:31;19.30;99.90
7360;DHT22;3720;48.274;7.796;2022-10-15T12:45:05;19.40;99.90
7360;DHT22;3720;48.274;7.796;2022-10-15T12:47:45;19.40;99.90
7360;DHT22;3720;48.274;7.796;2022-10-15T12:50:20;19.50;99.90
7360;DHT22;3720;48.274;7.796;2022-10-15T12:52:59;19.50;99.90
7360;DHT22;3720;48.274;7.796;2022-10-15T12:55:34;19.60;99.90
7360;DHT22;3720;48.274;7.796;2022-10-15T12:58:31;19.60;99.90
7360;DHT22;3720;48.274;7.796;2022-10-15T13:01:04;19.60;99.90
7360;DHT22;3720;48.274;7.796;2022-10-15T13:03:40;19.60;99.90
7360;DHT22;3720;48.274;7.796;2022-10-15T13:06:23;19.50;99.90
7360;DHT22;3720;48.274;7.796;2022-10-15T13:09:14;19.50;99.90
7360;DHT22;3720;48.274;7.796;2022-10-15T13:11:52;19.50;99.90
7360;DHT22;3720;48.274;7.796;2022-10-15T13:14:28;19.60;99.90
7360;DHT22;3720;48.274;7.796;2022-10-15T13:17:04;19.50;99.90
7360;DHT22;3720;48.274;7.796;2022-10-15T13:19:38;19.50;99.90
7360;DHT22;3720;48.274;7.796;2022-10-15T13:22:20;19.40;99.90
7360;DHT22;3720;48.274;7.796;2022-10-15T13:24:52;19.40;99.90
7360;DHT22;3720;48.274;7.796;2022-10-15T13:27:29;19.40;99.90
7360;DHT22;3720;48.274;7.796;2022-10-15T13:30:03;19.40;99.90
7360;DHT22;3720;48.274;7.796;2022-10-15T13:32:39;19.30;99.90
7360;DHT22;3720;48.274;7.796;2022-10-15T13:35:18;19.20;99.90
7360;DHT22;3720;48.274;7.796;2022-10-15T13:37:51;19.20;99.90
7360;DHT22;3720;48.274;7.796;2022-10-15T13:40:25;19.30;99.90
7360;DHT22;3720;48.274;7.796;2022-10-15T13:42:59;19.10;99.90
7360;DHT22;3720;48.274;7.796;2022-10-15T13:45:32;19.20;99.90
7360;DHT22;3720;48.274;7.796;2022-10-15T13:48:10;19.20;99.90
7360;DHT22;3720;48.274;7.796;2022-10-15T13:50:45;19.20;99.90
7360;DHT22;3720;48.274;7.796;2022-10-15T13:53:22;19.30;99.90
7360;DHT22;3720;48.274;7.796;2022-10-15T13:55:58;19.20;99.90
7360;DHT22;3720;48.274;7.796;2022-10-15T13:58:33;19.20;99.90
7360;DHT22;3720;48.274;7.796;2022-10-15T14:01:08;19.30;99.90
7360;DHT22;3720;48.274;7.796;2022-10-15T14:03:46;19.40;99.90
7360;DHT22;3720;48.274;7.796;2022-10-15T14:06:21;19.40;99.90
7360;DHT22;3720;48.274;7.796;2022-10-15T14:08:54;19.50;99.90
7360;DHT22;3720;48.274;7.796;2022-10-15T14:11:28;19.50;99.90
7360;DHT22;3720;48.274;7.796;2022-10-15T14:14:01;19.60;99.90
7360;DHT22;3720;48.274;7.796;2022-10-15T14:16:38;19.70;99.90
7360;DHT22;3720;48.274;7.796;2022-10-15T14:19:17;19.70;99.90
7360;DHT22;3720;48.274;7.796;2022-10-15T14:21:50;19.70;99.90
7360;DHT22;3720;48.274;7.796;2022-10-15T14:24:27;19.70;99.90
7360;DHT22;3720;48.274;7.796;2022-10-15T14:27:07;19.70;99.90
7360;DHT22;3720;48.274;7.796;2022-10-15T14:29:47;19.70;99.90
7360;DHT22;3720;48.274;7.796;2022-10-15T14:32:23;19.70;99.90
7360;DHT22;3720;48.274;7.796;2022-10-15T14:34:56;19.70;99.90
7360;DHT22;3720;48.274;7.796;2022-10-15T14:37:39;19.70;99.90
7360;DHT22;3720;48.274;7.796;2022-10-15T14:40:21;19.70;99.90
7360;DHT22;3720;48.274;7.796;2022-10-15T14:43:02;19.70;99.90
7360;DHT22;3720;48.274;7.796;2022-10-15T14:45:40;19.70;99.90
7360;DHT22;3720;48.274;7.796;2022-10-15T14:48:19;19.70;99.90
7360;DHT22;3720;48.274;7.796;2022-10-15T14:50:52;19.70;99.90
7360;DHT22;3720;48.274;7.796;2022-10-15T14:53:31;19.70;99.90
7360;DHT22;3720;48.274;7.796;2022-10-15T14:56:08;19.70;99.90
7360;DHT22;3720;48.274;7.796;2022-10-15T14:58:46;19.70;99.90
7360;DHT22;3720;48.274;7.796;2022-10-15T15:01:23;19.70;99.90
7360;DHT22;3720;48.274;7.796;2022-10-15T15:03:57;19.70;99.90
7360;DHT22;3720;48.274;7.796;2022-10-15T15:06:28;19.70;99.90
7360;DHT22;3720;48.274;7.796;2022-10-15T15:09:02;19.70;99.90
7360;DHT22;3720;48.274;7.796;2022-10-15T15:11:34;19.70;99.90
7360;DHT22;3720;48.274;7.796;2022-10-15T15:14:19;19.70;99.90
7360;DHT22;3720;48.274;7.796;2022-10-15T15:16:54;19.70;99.90
7360;DHT22;3720;48.274;7.796;2022-10-15T15:19:25;19.70;99.90
7360;DHT22;3720;48.274;7.796;2022-10-15T15:21:57;19.60;99.90
7360;DHT22;3720;48.274;7.796;2022-10-15T15:24:29;19.60;99.90
7360;DHT22;3720;48.274;7.796;2022-10-15T15:27:01;19.60;99.90
7360;DHT22;3720;48.274;7.796;2022-10-15T15:29:33;19.50;99.90
7360;DHT22;3720;48.274;7.796;2022-10-15T15:32:08;19.50;99.90
7360;DHT22;3720;48.274;7.796;2022-10-15T15:34:40;19.50;99.90
7360;DHT22;3720;48.274;7.796;2022-10-15T15:37:14;19.40;99.90
7360;DHT22;3720;48.274;7.796;2022-10-15T15:39:47;19.40;99.90
7360;DHT22;3720;48.274;7.796;2022-10-15T15:42:20;19.40;99.90
7360;DHT22;3720;48.274;7.796;2022-10-15T15:44:53;19.40;99.90
7360;DHT22;3720;48.274;7.796;2022-10-15T15:47:26;19.40;99.90
7360;DHT22;3720;48.274;7.796;2022-10-15T15:49:58;19.40;99.90
7360;DHT22;3720;48.274;7.796;2022-10-15T15:52:30;19.40;99.90
7360;DHT22;3720;48.274;7.796;2022-10-15T15:55:02;19.30;99.90
7360;DHT22;3720;48.274;7.796;2022-10-15T15:57:33;19.30;99.90
7360;DHT22;3720;48.274;7.796;2022-10-15T16:00:07;19.30;99.90
7360;DHT22;3720;48.274;7.796;2022-10-15T16:02:41;19.30;99.90
7360;DHT22;3720;48.274;7.796;2022-10-15T16:05:14;19.30;99.90
7360;DHT22;3720;48.274;7.796;2022-10-15T16:07:46;19.30;99.90
7360;DHT22;3720;48.274;7.796;2022-10-15T16:10:18;19.30;99.90
7360;DHT22;3720;48.274;7.796;2022-10-15T16:12:50;19.30;99.90
7360;DHT22;3720;48.274;7.796;2022-10-15T16:15:22;19.30;99.90
7360;DHT22;3720;48.274;7.796;2022-10-15T16:17:56;19.30;99.90
7360;DHT22;3720;48.274;7.796;2022-10-15T16:20:27;19.20;99.90
7360;DHT22;3720;48.274;7.796;2022-10-15T16:22:59;19.10;99.90
7360;DHT22;3720;48.274;7.796;2022-10-15T16:25:31;19.00;99.90
7360;DHT22;3720;48.274;7.796;2022-10-15T16:28:04;18.80;99.90
7360;DHT22;3720;48.274;7.796;2022-10-15T16:30:35;18.80;99.90
7360;DHT22;3720;48.274;7.796;2022-10-15T16:33:09;18.60;99.90
7360;DHT22;3720;48.274;7.796;2022-10-15T16:35:41;18.50;99.90
7360;DHT22;3720;48.274;7.796;2022-10-15T16:38:13;18.50;99.90
7360;DHT22;3720;48.274;7.796;2022-10-15T16:40:45;18.40;99.90
7360;DHT22;3720;48.274;7.796;2022-10-15T16:43:17;18.40;99.90
7360;DHT22;3720;48.274;7.796;2022-10-15T16:45:53;18.30;99.90
7360;DHT22;3720;48.274;7.796;2022-10-15T16:48:27;18.30;99.90
7360;DHT22;3720;48.274;7.796;2022-10-15T16:51:01;18.30;99.90
7360;DHT22;3720;48.274;7.796;2022-10-15T16:53:34;18.30;99.90
7360;DHT22;3720;48.274;7.796;2022-10-15T16:56:08;18.30;99.90